createdAt,value
2019-04-06T00:02:19.718Z,75.37
2019-04-06T00:04:47.920Z,75.56
2019-04-06T00:07:16.151Z,75.69
2019-04-06T00:09:44.369Z,75.85
2019-04-06T00:12:13.956Z,76.09
2019-04-06T00:14:42.164Z,76.20
2019-04-06T00:17:10.387Z,76.18
2019-04-06T00:19:38.593Z,76.34
2019-04-06T00:22:06.811Z,76.70
2019-04-06T00:24:35.017Z,76.84
2019-04-06T00:27:03.239Z,76.92
2019-04-06T00:29:31.446Z,76.76
2019-04-06T00:32:01.304Z,76.80
2019-04-06T00:34:29.577Z,76.96
2019-04-06T00:36:57.734Z,77.05
2019-04-06T00:39:25.938Z,77.16
2019-04-06T00:41:54.172Z,77.30
2019-04-06T00:44:22.376Z,77.46
2019-04-06T00:46:50.594Z,77.57
2019-04-06T00:49:18.806Z,77.77
2019-04-06T00:51:47.977Z,77.88
2019-04-06T00:54:17.124Z,78.09
2019-04-06T00:56:45.478Z,78.12
2019-04-06T00:59:14.148Z,78.01
2019-04-06T01:01:42.359Z,77.88
2019-04-06T01:04:10.565Z,77.83
2019-04-06T01:06:38.788Z,78.02
2019-04-06T01:09:08.802Z,78.31
2019-04-06T01:11:37.017Z,78.05
2019-04-06T01:14:05.248Z,77.89
2019-04-06T01:16:33.458Z,77.79
2019-04-06T01:19:01.680Z,77.95
2019-04-06T01:21:29.882Z,77.94
2019-04-06T01:23:58.154Z,78.07
2019-04-06T01:26:26.318Z,78.16
2019-04-06T01:28:54.535Z,78.17
2019-04-06T01:31:22.754Z,78.12
2019-04-06T01:33:51.061Z,78.13
2019-04-06T01:36:19.374Z,78.05
2019-04-06T01:38:47.569Z,77.84
2019-04-06T01:41:15.783Z,77.73
2019-04-06T01:43:44.557Z,77.52
2019-04-06T01:46:12.789Z,77.58
2019-04-06T01:48:40.999Z,77.71
2019-04-06T01:51:09.217Z,77.69
2019-04-06T01:53:37.454Z,77.87
2019-04-06T01:56:05.667Z,77.85
2019-04-06T01:58:33.875Z,77.89
2019-04-06T02:01:12.603Z,77.92
2019-04-06T02:03:41.216Z,77.92
2019-04-06T02:06:09.513Z,78.15
2019-04-06T02:08:37.720Z,78.18
2019-04-06T02:11:05.929Z,78.32
2019-04-06T02:13:34.184Z,78.45
2019-04-06T02:16:02.362Z,78.43
2019-04-06T02:18:30.572Z,78.71
2019-04-06T02:20:58.805Z,78.80
2019-04-06T02:23:27.013Z,78.81
2019-04-06T02:25:55.245Z,78.90
2019-04-06T02:28:24.924Z,78.96
2019-04-06T02:31:12.791Z,79.09
2019-04-06T02:33:42.726Z,79.13
2019-04-06T02:36:18.572Z,79.32
2019-04-06T02:38:52.396Z,79.46
2019-04-06T02:41:37.372Z,79.63
2019-04-06T02:44:05.580Z,79.83
2019-04-06T02:46:33.787Z,79.98
2019-04-06T02:49:02.004Z,80.00
2019-04-06T02:51:30.217Z,80.12
2019-04-06T02:53:58.434Z,80.28
2019-04-06T02:56:26.643Z,80.47
2019-04-06T02:58:54.867Z,80.32
2019-04-06T03:01:23.115Z,80.26
2019-04-06T03:03:51.321Z,80.46
2019-04-06T03:06:19.540Z,80.55
2019-04-06T03:08:47.749Z,80.60
2019-04-06T03:11:15.991Z,80.57
2019-04-06T03:13:44.198Z,80.17
2019-04-06T03:16:12.421Z,79.86
2019-04-06T03:18:40.634Z,79.86
2019-04-06T03:21:08.846Z,80.10
2019-04-06T03:23:49.584Z,80.38
2019-04-06T03:26:06.990Z,80.59
2019-04-06T03:28:35.662Z,80.47
2019-04-06T03:31:03.896Z,80.66
2019-04-06T03:33:32.330Z,80.79
2019-04-06T03:36:00.581Z,80.46
2019-04-06T03:38:28.809Z,80.29
2019-04-06T03:40:57.021Z,80.20
2019-04-06T03:43:25.228Z,80.23
2019-04-06T03:45:53.450Z,80.52
2019-04-06T03:48:21.666Z,80.77
2019-04-06T03:50:50.062Z,80.73
2019-04-06T03:53:18.295Z,80.76
2019-04-06T03:55:46.491Z,80.82
2019-04-06T03:58:14.703Z,80.59
2019-04-06T04:00:42.967Z,80.55
2019-04-06T04:03:11.451Z,80.74
2019-04-06T04:05:39.677Z,80.90
2019-04-06T04:08:07.920Z,80.71
2019-04-06T04:10:36.859Z,80.44
2019-04-06T04:13:05.614Z,80.25
2019-04-06T04:15:33.823Z,80.06
2019-04-06T04:18:02.074Z,80.13
2019-04-06T04:20:30.249Z,80.49
2019-04-06T04:22:58.691Z,80.80
2019-04-06T04:25:26.858Z,80.83
2019-04-06T04:27:55.083Z,81.04
2019-04-06T04:30:32.519Z,81.01
2019-04-06T04:32:53.209Z,80.79
2019-04-06T04:35:21.588Z,80.74
2019-04-06T04:37:49.810Z,80.89
2019-04-06T04:40:18.017Z,80.93
2019-04-06T04:42:46.242Z,80.80
2019-04-06T04:45:14.641Z,80.83
2019-04-06T04:47:42.855Z,80.69
2019-04-06T04:50:11.063Z,80.60
2019-04-06T04:52:39.285Z,80.56
2019-04-06T04:55:07.496Z,80.49
2019-04-06T04:57:40.775Z,80.48
2019-04-06T05:00:06.344Z,80.54
2019-04-06T05:02:34.631Z,80.21
2019-04-06T05:05:02.798Z,80.24
2019-04-06T05:07:31.004Z,80.26
2019-04-06T05:09:59.223Z,80.38
2019-04-06T05:12:27.425Z,80.54
2019-04-06T05:15:04.154Z,80.76
2019-04-06T05:17:32.691Z,80.82
2019-04-06T05:20:00.915Z,80.84
2019-04-06T05:22:29.110Z,80.84
2019-04-06T05:24:57.332Z,80.78
2019-04-06T05:27:25.527Z,80.82
2019-04-06T05:29:53.725Z,80.78
2019-04-06T05:32:21.944Z,80.75
2019-04-06T05:34:50.253Z,80.86
2019-04-06T05:37:18.452Z,80.95
2019-04-06T05:39:46.648Z,80.92
2019-04-06T05:42:14.853Z,80.62
2019-04-06T05:44:43.070Z,79.98
2019-04-06T05:47:11.287Z,79.16
2019-04-06T05:49:39.649Z,78.55
2019-04-06T05:52:07.798Z,78.12
2019-04-06T05:54:36.033Z,78.04
2019-04-06T05:57:04.677Z,77.75
2019-04-06T05:59:32.901Z,77.64
2019-04-06T06:02:01.102Z,77.28
2019-04-06T06:04:29.330Z,77.21
2019-04-06T06:06:57.538Z,77.08
2019-04-06T06:09:25.803Z,77.03
2019-04-06T06:11:55.632Z,76.94
2019-04-06T06:14:24.031Z,76.86
2019-04-06T06:16:52.278Z,76.80
2019-04-06T06:19:20.597Z,76.72
2019-04-06T06:21:48.812Z,76.71
2019-04-06T06:24:17.012Z,76.80
2019-04-06T06:26:45.504Z,76.93
2019-04-06T06:29:13.702Z,76.92
2019-04-06T06:31:41.911Z,76.73
2019-04-06T06:34:10.130Z,76.46
2019-04-06T06:36:38.333Z,76.31
2019-04-06T06:39:07.598Z,76.11
2019-04-06T06:41:35.807Z,76.19
2019-04-06T06:44:04.026Z,76.00
2019-04-06T06:46:32.276Z,75.89
2019-04-06T06:49:00.461Z,75.66
2019-04-06T06:51:29.652Z,75.45
2019-04-06T06:53:57.928Z,75.28
2019-04-06T06:56:26.149Z,75.11
2019-04-06T06:58:55.741Z,75.15
2019-04-06T07:01:24.141Z,74.89
2019-04-06T07:03:52.274Z,74.53
2019-04-06T07:06:20.490Z,74.52
2019-04-06T07:08:48.702Z,74.51
2019-04-06T07:11:16.998Z,74.14
2019-04-06T07:13:45.132Z,73.81
2019-04-06T07:16:13.349Z,73.67
2019-04-06T07:18:41.567Z,73.73
2019-04-06T07:21:09.762Z,73.52
2019-04-06T07:23:37.999Z,73.22
2019-04-06T07:26:06.219Z,73.05
2019-04-06T07:28:38.425Z,72.62
2019-04-06T07:31:04.621Z,71.97
2019-04-06T07:33:32.854Z,71.57
2019-04-06T07:36:01.071Z,71.39
2019-04-06T07:38:29.287Z,70.97
2019-04-06T07:40:57.507Z,70.93
2019-04-06T07:43:25.808Z,70.89
2019-04-06T07:45:54.589Z,70.61
2019-04-06T07:48:22.801Z,70.57
2019-04-06T07:50:51.005Z,70.37
2019-04-06T07:53:19.354Z,70.08
2019-04-06T07:55:47.708Z,69.80
2019-04-06T07:58:16.096Z,70.15
2019-04-06T08:00:44.577Z,70.16
2019-04-06T08:03:12.784Z,70.14
2019-04-06T08:05:41.049Z,69.79
2019-04-06T08:08:09.210Z,69.61
2019-04-06T08:10:37.433Z,69.37
2019-04-06T08:13:05.646Z,69.23
2019-04-06T08:15:33.867Z,69.21
2019-04-06T08:18:02.535Z,68.96
2019-04-06T08:20:30.753Z,69.06
2019-04-06T08:22:58.960Z,68.76
2019-04-06T08:25:27.190Z,68.42
2019-04-06T08:27:55.567Z,68.25
2019-04-06T08:30:24.167Z,68.06
2019-04-06T08:32:52.324Z,67.61
2019-04-06T08:35:26.030Z,67.38
2019-04-06T08:37:50.471Z,67.00
2019-04-06T08:40:18.721Z,66.79
2019-04-06T08:42:47.154Z,66.96
2019-04-06T08:45:15.391Z,67.14
2019-04-06T08:47:43.595Z,66.68
2019-04-06T08:50:11.817Z,66.65
2019-04-06T08:52:40.018Z,66.35
2019-04-06T08:55:08.615Z,66.27
2019-04-06T08:57:36.907Z,66.08
2019-04-06T09:00:06.839Z,66.05
2019-04-06T09:02:35.197Z,65.99
2019-04-06T09:05:04.584Z,65.91
2019-04-06T09:07:33.256Z,65.96
2019-04-06T09:10:01.497Z,65.65
2019-04-06T09:12:29.697Z,65.44
2019-04-06T09:14:57.940Z,65.05
2019-04-06T09:17:26.122Z,64.55
2019-04-06T09:19:54.333Z,64.40
2019-04-06T09:22:22.754Z,64.29
2019-04-06T09:24:50.929Z,64.27
2019-04-06T09:27:19.150Z,63.88
2019-04-06T09:29:47.534Z,63.64
2019-04-06T09:32:15.756Z,63.58
2019-04-06T09:34:44.290Z,63.63
2019-04-06T09:37:12.452Z,63.39
2019-04-06T09:39:40.662Z,63.39
2019-04-06T09:42:08.878Z,63.27
2019-04-06T09:44:44.579Z,62.95
2019-04-06T09:47:23.390Z,62.43
2019-04-06T09:49:59.979Z,62.36
2019-04-06T09:52:45.432Z,62.41
2019-04-06T09:55:15.353Z,62.12
2019-04-06T09:57:54.445Z,62.17
2019-04-06T10:00:30.134Z,62.31
2019-04-06T10:03:15.880Z,62.21
2019-04-06T10:05:54.146Z,62.03
2019-04-06T10:08:26.756Z,62.04
2019-04-06T10:10:59.618Z,61.86
2019-04-06T10:13:45.697Z,61.90
2019-04-06T10:16:15.740Z,61.78
2019-04-06T10:18:54.580Z,61.77
2019-04-06T10:21:27.568Z,61.48
2019-04-06T10:24:15.202Z,60.89
2019-04-06T10:26:48.371Z,60.12
2019-04-06T10:29:23.930Z,59.86
2019-04-06T10:32:10.772Z,60.56
2019-04-06T10:34:52.388Z,60.36
2019-04-06T10:37:27.716Z,59.02
2019-04-06T10:40:13.726Z,58.97
2019-04-06T10:42:48.981Z,59.49
2019-04-06T10:45:18.828Z,59.66
2019-04-06T10:47:54.791Z,59.64
2019-04-06T10:50:27.225Z,59.82
2019-04-06T10:53:09.523Z,60.11
2019-04-06T10:55:39.384Z,60.37
2019-04-06T10:58:26.173Z,59.53
2019-04-06T11:01:13.877Z,59.02
2019-04-06T11:03:46.537Z,58.84
2019-04-06T11:06:28.228Z,58.35
2019-04-06T11:09:03.792Z,58.35
2019-04-06T11:11:33.643Z,58.44
2019-04-06T11:14:03.492Z,57.67
2019-04-06T11:16:51.426Z,57.13
2019-04-06T11:19:37.547Z,56.73
2019-04-06T11:22:24.576Z,56.54
2019-04-06T11:24:59.546Z,56.50
2019-04-06T11:27:29.615Z,56.18
2019-04-06T11:30:11.287Z,56.24
2019-04-06T11:32:40.272Z,56.09
2019-04-06T11:35:12.628Z,55.58
2019-04-06T11:37:42.430Z,55.46
2019-04-06T11:40:23.989Z,55.70
2019-04-06T11:42:56.537Z,55.84
2019-04-06T11:45:26.404Z,55.49
2019-04-06T11:47:56.622Z,55.59
2019-04-06T11:50:28.948Z,55.90
2019-04-06T11:53:02.476Z,55.96
2019-04-06T11:55:38.658Z,56.28
2019-04-06T11:58:17.575Z,56.44
2019-04-06T12:00:49.901Z,56.30
2019-04-06T12:03:19.746Z,56.17
2019-04-06T12:06:07.466Z,56.40
2019-04-06T12:08:39.959Z,56.25
2019-04-06T12:11:24.743Z,56.00
2019-04-06T12:13:57.287Z,55.74
2019-04-06T12:16:45.765Z,55.59
2019-04-06T12:19:24.421Z,55.02
2019-04-06T12:21:54.291Z,55.11
2019-04-06T12:24:30.113Z,55.02
2019-04-06T12:27:05.700Z,54.79
2019-04-06T12:29:35.549Z,54.81
2019-04-06T12:32:20.124Z,54.30
2019-04-06T12:34:49.937Z,54.45
2019-04-06T12:37:25.514Z,54.42
2019-04-06T12:40:11.787Z,54.23
2019-04-06T12:42:44.412Z,54.16
2019-04-06T12:45:14.261Z,54.28
2019-04-06T12:48:02.194Z,54.11
2019-04-06T12:50:40.878Z,53.93
2019-04-06T12:53:16.408Z,53.98
2019-04-06T12:56:02.469Z,54.20
2019-04-06T12:58:35.346Z,54.42
2019-04-06T13:01:22.336Z,54.54
2019-04-06T13:03:55.264Z,54.87
2019-04-06T13:06:25.286Z,55.19
2019-04-06T13:08:57.790Z,55.56
2019-04-06T13:11:43.520Z,55.50
2019-04-06T13:14:16.269Z,55.70
2019-04-06T13:16:58.023Z,56.23
2019-04-06T13:19:39.579Z,56.59
2019-04-06T13:22:09.666Z,56.97
2019-04-06T13:24:57.383Z,56.74
2019-04-06T13:27:39.084Z,56.79
2019-04-06T13:30:25.176Z,56.95
2019-04-06T13:33:01.030Z,57.48
2019-04-06T13:35:31.127Z,57.68
2019-04-06T13:38:12.821Z,57.75
2019-04-06T13:40:42.733Z,57.67
2019-04-06T13:43:17.994Z,57.77
2019-04-06T13:45:47.876Z,57.73
2019-04-06T13:48:33.733Z,57.52
2019-04-06T13:51:15.199Z,57.21
2019-04-06T13:53:54.391Z,57.17
2019-04-06T13:56:24.261Z,56.88
2019-04-06T13:58:56.799Z,57.14
2019-04-06T14:01:27.221Z,57.16
2019-04-06T14:04:02.579Z,57.27
2019-04-06T14:06:34.908Z,57.42
2019-04-06T14:09:13.574Z,57.24
2019-04-06T14:11:46.264Z,57.51
2019-04-06T14:14:32.152Z,57.65
2019-04-06T14:17:13.876Z,57.48
2019-04-06T14:20:01.604Z,57.04
2019-04-06T14:22:43.216Z,57.15
2019-04-06T14:25:15.930Z,56.79
2019-04-06T14:27:54.568Z,56.87
2019-04-06T14:30:39.578Z,56.72
2019-04-06T14:33:09.423Z,56.59
2019-04-06T14:35:54.946Z,56.18
2019-04-06T14:38:34.935Z,55.95
2019-04-06T14:41:07.750Z,56.10
2019-04-06T14:43:43.514Z,55.95
2019-04-06T14:46:17.461Z,55.84
2019-04-06T14:48:50.004Z,55.56
2019-04-06T14:51:36.091Z,55.33
2019-04-06T14:54:11.663Z,55.13
2019-04-06T14:56:44.846Z,54.77
2019-04-06T14:59:17.461Z,54.58
2019-04-06T15:02:03.319Z,54.08
2019-04-06T15:04:48.200Z,53.87
2019-04-06T15:07:23.780Z,53.80
2019-04-06T15:09:54.369Z,53.95
2019-04-06T15:12:27.026Z,53.67
2019-04-06T15:15:02.387Z,53.28
2019-04-06T15:17:38.234Z,53.28
2019-04-06T15:20:23.874Z,53.14
2019-04-06T15:23:10.298Z,53.07
2019-04-06T15:25:51.883Z,53.01
2019-04-06T15:28:21.823Z,53.03
2019-04-06T15:30:57.718Z,52.98
2019-04-06T15:33:43.750Z,52.84
2019-04-06T15:36:13.619Z,52.41
2019-04-06T15:38:49.581Z,52.34
2019-04-06T15:41:19.467Z,52.49
2019-04-06T15:44:05.226Z,52.51
2019-04-06T15:46:51.273Z,52.40
2019-04-06T15:49:21.135Z,52.05
2019-04-06T15:51:50.985Z,52.14
2019-04-06T15:54:29.881Z,52.03
2019-04-06T15:56:59.795Z,52.23
2019-04-06T15:59:30.299Z,52.01
2019-04-06T16:02:03.221Z,51.91
2019-04-06T16:04:49.683Z,51.90
2019-04-06T16:07:30.153Z,52.31
2019-04-06T16:09:51.351Z,52.11
2019-04-06T16:12:21.209Z,52.49
2019-04-06T16:14:54.049Z,52.59
2019-04-06T16:17:24.199Z,52.43
2019-04-06T16:19:56.899Z,52.45
2019-04-06T16:22:29.302Z,52.67
2019-04-06T16:25:04.832Z,52.85
2019-04-06T16:27:50.821Z,53.04
2019-04-06T16:30:23.144Z,53.03
2019-04-06T16:32:53.069Z,53.25
2019-04-06T16:35:38.788Z,53.47
2019-04-06T16:38:24.843Z,53.60
2019-04-06T16:40:54.695Z,53.89
2019-04-06T16:43:27.449Z,54.06
2019-04-06T16:45:57.296Z,54.15
2019-04-06T16:48:39.066Z,54.35
2019-04-06T16:51:17.718Z,54.51
2019-04-06T16:53:59.139Z,54.57
2019-04-06T16:56:28.993Z,54.88
2019-04-06T16:58:58.855Z,54.98
2019-04-06T17:01:34.508Z,55.09
2019-04-06T17:04:19.529Z,55.21
2019-04-06T17:06:49.387Z,55.50
2019-04-06T17:09:25.141Z,55.80
2019-04-06T17:12:03.933Z,56.04
2019-04-06T17:14:43.653Z,56.29
2019-04-06T17:17:24.873Z,56.55
2019-04-06T17:19:57.673Z,56.90
2019-04-06T17:22:30.472Z,57.26
2019-04-06T17:25:16.651Z,57.59
2019-04-06T17:27:52.558Z,57.93
2019-04-06T17:30:25.126Z,58.22
2019-04-06T17:33:10.864Z,58.46
2019-04-06T17:35:40.715Z,58.57
2019-04-06T17:38:10.586Z,58.85
2019-04-06T17:40:46.118Z,59.09
2019-04-06T17:43:30.733Z,59.35
2019-04-06T17:46:03.481Z,59.48
2019-04-06T17:48:33.329Z,59.72
2019-04-06T17:51:19.123Z,59.88
2019-04-06T17:53:55.224Z,60.11
2019-04-06T17:56:27.795Z,60.22
2019-04-06T17:59:03.294Z,60.42
2019-04-06T18:01:34.231Z,60.56
2019-04-06T18:04:22.153Z,60.67
2019-04-06T18:06:52.324Z,60.79
2019-04-06T18:09:31.607Z,61.05
2019-04-06T18:12:10.338Z,61.21
2019-04-06T18:14:38.563Z,61.30
2019-04-06T18:17:06.837Z,61.54
2019-04-06T18:19:35.071Z,61.71
2019-04-06T18:22:04.109Z,61.92
2019-04-06T18:24:32.667Z,62.07
2019-04-06T18:27:00.878Z,62.35
2019-04-06T18:29:29.077Z,62.58
2019-04-06T18:32:13.993Z,62.68
2019-04-06T18:34:42.243Z,62.82
2019-04-06T18:37:14.689Z,63.16
2019-04-06T18:39:42.897Z,63.45
2019-04-06T18:42:11.099Z,63.61
2019-04-06T18:44:40.070Z,63.85
2019-04-06T18:47:08.599Z,64.06
2019-04-06T18:49:36.803Z,64.14
2019-04-06T18:52:05.152Z,64.07
2019-04-06T18:54:33.305Z,64.18
2019-04-06T18:57:01.515Z,64.32
2019-04-06T18:59:29.739Z,64.28
2019-04-06T19:01:58.862Z,64.37
2019-04-06T19:04:27.461Z,64.71
2019-04-06T19:06:55.732Z,64.54
2019-04-06T19:09:25.425Z,64.71
2019-04-06T19:11:56.671Z,64.83
2019-04-06T19:14:23.851Z,65.01
2019-04-06T19:16:52.434Z,65.18
2019-04-06T19:19:20.664Z,65.22
2019-04-06T19:21:49.034Z,65.30
2019-04-06T19:24:17.251Z,65.43
2019-04-06T19:26:46.052Z,65.52
2019-04-06T19:29:14.251Z,65.76
2019-04-06T19:31:42.465Z,65.65
2019-04-06T19:34:10.682Z,65.75
2019-04-06T19:36:38.899Z,66.00
2019-04-06T19:39:11.175Z,66.12
2019-04-06T19:41:39.392Z,66.16
2019-04-06T19:44:08.025Z,66.21
2019-04-06T19:46:36.301Z,66.10
2019-04-06T19:49:04.475Z,66.27
2019-04-06T19:51:33.145Z,66.34
2019-04-06T19:54:04.359Z,66.30
2019-04-06T19:56:31.303Z,66.58
2019-04-06T19:58:59.631Z,66.70
2019-04-06T20:01:27.811Z,66.78
2019-04-06T20:03:56.035Z,67.04
2019-04-06T20:06:24.245Z,67.14
2019-04-06T20:08:52.851Z,67.29
2019-04-06T20:11:21.069Z,67.46
2019-04-06T20:13:49.399Z,67.29
2019-04-06T20:16:17.579Z,67.40
2019-04-06T20:18:45.781Z,67.64
2019-04-06T20:21:14.274Z,67.92
2019-04-06T20:23:42.950Z,67.86
2019-04-06T20:26:11.548Z,68.11
2019-04-06T20:28:41.044Z,68.18
2019-04-06T20:31:09.304Z,68.19
2019-04-06T20:33:46.788Z,68.02
2019-04-06T20:36:07.427Z,68.37
2019-04-06T20:38:35.741Z,68.81
2019-04-06T20:41:04.302Z,69.06
2019-04-06T20:43:33.019Z,69.40
2019-04-06T20:46:01.195Z,69.46
2019-04-06T20:48:29.447Z,69.17
2019-04-06T20:50:57.619Z,69.31
2019-04-06T20:53:25.835Z,69.51
2019-04-06T20:55:54.234Z,69.57
2019-04-06T20:58:22.421Z,69.66
2019-04-06T21:00:51.203Z,69.82
2019-04-06T21:03:19.871Z,69.66
2019-04-06T21:05:48.102Z,69.78
2019-04-06T21:08:17.914Z,69.66
2019-04-06T21:10:46.120Z,69.55
2019-04-06T21:13:14.424Z,69.59
2019-04-06T21:15:43.055Z,69.49
2019-04-06T21:18:12.138Z,69.46
2019-04-06T21:20:40.368Z,69.73
2019-04-06T21:23:08.741Z,69.81
2019-04-06T21:25:37.470Z,69.79
2019-04-06T21:28:05.620Z,69.85
2019-04-06T21:30:33.829Z,70.09
2019-04-06T21:33:02.028Z,70.17
2019-04-06T21:35:31.033Z,70.28
2019-04-06T21:38:00.016Z,70.32
2019-04-06T21:40:28.223Z,70.28
2019-04-06T21:42:56.694Z,70.37
2019-04-06T21:45:25.124Z,70.54
2019-04-06T21:47:53.280Z,70.98
2019-04-06T21:50:22.773Z,71.14
2019-04-06T21:52:53.054Z,71.15
2019-04-06T21:55:21.869Z,71.19
2019-04-06T21:57:50.054Z,71.41
2019-04-06T22:00:25.623Z,71.52
2019-04-06T22:02:53.827Z,71.66
2019-04-06T22:05:22.029Z,71.55
2019-04-06T22:07:53.578Z,71.43
2019-04-06T22:10:20.805Z,71.13
2019-04-06T22:12:50.725Z,71.35
2019-04-06T22:15:19.243Z,71.51
2019-04-06T22:17:47.779Z,71.75
2019-04-06T22:20:15.979Z,71.77
2019-04-06T22:22:44.297Z,71.92
2019-04-06T22:25:12.499Z,72.10
2019-04-06T22:27:40.691Z,72.14
2019-04-06T22:30:09.974Z,72.09
2019-04-06T22:32:38.179Z,72.28
2019-04-06T22:35:07.347Z,71.84
2019-04-06T22:37:35.976Z,71.67
2019-04-06T22:40:05.551Z,71.61
2019-04-06T22:42:34.256Z,71.64
2019-04-06T22:45:02.670Z,71.61
2019-04-06T22:47:31.370Z,71.82
2019-04-06T22:49:59.535Z,72.14
2019-04-06T22:52:27.746Z,72.43
2019-04-06T22:54:55.956Z,72.89
2019-04-06T22:57:25.078Z,73.04
2019-04-06T22:59:53.289Z,73.25
2019-04-06T23:02:23.728Z,73.43
2019-04-06T23:04:53.674Z,73.43
2019-04-06T23:07:23.753Z,73.37
2019-04-06T23:09:52.108Z,73.49
2019-04-06T23:12:21.179Z,73.57
2019-04-06T23:14:49.889Z,73.89
2019-04-06T23:17:18.071Z,74.14
2019-04-06T23:19:46.899Z,74.45
2019-04-06T23:22:15.066Z,74.59
2019-04-06T23:24:43.277Z,74.75
2019-04-06T23:27:11.479Z,75.07
2019-04-06T23:29:40.273Z,75.14
2019-04-06T23:32:08.951Z,75.13
2019-04-06T23:34:37.171Z,75.22
2019-04-06T23:37:06.098Z,75.22
2019-04-06T23:39:34.445Z,75.11
2019-04-06T23:42:03.526Z,75.23
2019-04-06T23:44:31.829Z,75.35
2019-04-06T23:47:00.446Z,75.55
2019-04-06T23:49:29.154Z,75.66
2019-04-06T23:51:57.764Z,75.52
2019-04-06T23:54:26.372Z,75.15
2019-04-06T23:56:54.575Z,74.63
2019-04-06T23:59:23.319Z,74.37
